sensor_id;sensor_type;location;lat;lon;timestamp;pressure;altitude;pressure_sealevel;temperature;humidity
47080;BME280;33067;49.296;14.470;2023-02-16T00:01:25;98031.69;;;4.96;42.52
47080;BME280;33067;49.296;14.470;2023-02-16T00:03:50;98028.61;;;5.38;41.53
47080;BME280;33067;49.296;14.470;2023-02-16T00:06:15;98033.65;;;5.15;42.02
47080;BME280;33067;49.296;14.470;2023-02-16T00:08:40;98030.61;;;5.28;41.65
47080;BME280;33067;49.296;14.470;2023-02-16T00:11:10;98031.93;;;5.03;41.45
47080;BME280;33067;49.296;14.470;2023-02-16T00:13:30;98031.20;;;4.70;41.79
47080;BME280;33067;49.296;14.470;2023-02-16T00:15:56;98029.87;;;4.26;42.34
47080;BME280;33067;49.296;14.470;2023-02-16T00:18:22;98029.94;;;4.33;42.31
47080;BME280;33067;49.296;14.470;2023-02-16T00:20:47;98029.17;;;4.17;43.25
47080;BME280;33067;49.296;14.470;2023-02-16T00:23:12;98033.79;;;4.34;43.38
47080;BME280;33067;49.296;14.470;2023-02-16T00:25:37;98030.45;;;4.68;42.76
47080;BME280;33067;49.296;14.470;2023-02-16T00:28:08;98032.42;;;4.56;42.65
47080;BME280;33067;49.296;14.470;2023-02-16T00:30:28;98032.22;;;4.16;43.09
47080;BME280;33067;49.296;14.470;2023-02-16T00:32:53;98034.10;;;3.68;43.22
47080;BME280;33067;49.296;14.470;2023-02-16T00:35:20;98033.51;;;3.62;43.83
47080;BME280;33067;49.296;14.470;2023-02-16T00:37:45;98030.00;;;3.83;43.35
47080;BME280;33067;49.296;14.470;2023-02-16T00:40:12;98026.07;;;3.93;42.06
47080;BME280;33067;49.296;14.470;2023-02-16T00:42:36;98024.30;;;4.01;42.18
47080;BME280;33067;49.296;14.470;2023-02-16T00:45:02;98030.06;;;3.23;43.57
47080;BME280;33067;49.296;14.470;2023-02-16T00:47:31;98030.24;;;3.38;44.03
47080;BME280;33067;49.296;14.470;2023-02-16T00:49:53;98021.15;;;3.67;43.68
47080;BME280;33067;49.296;14.470;2023-02-16T00:52:30;98025.36;;;3.73;43.74
47080;BME280;33067;49.296;14.470;2023-02-16T00:54:43;98025.76;;;3.92;43.77
47080;BME280;33067;49.296;14.470;2023-02-16T00:57:09;98021.01;;;3.97;43.67
47080;BME280;33067;49.296;14.470;2023-02-16T00:59:33;98018.40;;;4.11;41.57
47080;BME280;33067;49.296;14.470;2023-02-16T01:01:59;98016.79;;;4.07;42.14
47080;BME280;33067;49.296;14.470;2023-02-16T01:04:24;98021.43;;;3.36;43.46
47080;BME280;33067;49.296;14.470;2023-02-16T01:06:50;98020.12;;;3.38;43.81
47080;BME280;33067;49.296;14.470;2023-02-16T01:09:18;98012.88;;;3.79;42.94
47080;BME280;33067;49.296;14.470;2023-02-16T01:11:41;98020.41;;;3.73;42.92
47080;BME280;33067;49.296;14.470;2023-02-16T01:14:10;98022.13;;;2.71;44.91
47080;BME280;33067;49.296;14.470;2023-02-16T01:16:35;98016.86;;;3.36;44.29
47080;BME280;33067;49.296;14.470;2023-02-16T01:18:57;98014.28;;;3.78;43.07
47080;BME280;33067;49.296;14.470;2023-02-16T01:21:22;98022.77;;;3.25;43.93
47080;BME280;33067;49.296;14.470;2023-02-16T01:23:48;98025.21;;;3.66;43.12
47080;BME280;33067;49.296;14.470;2023-02-16T01:26:14;98018.73;;;3.80;42.91
47080;BME280;33067;49.296;14.470;2023-02-16T01:28:39;98022.68;;;3.81;43.58
47080;BME280;33067;49.296;14.470;2023-02-16T01:31:04;98020.23;;;3.38;43.73
47080;BME280;33067;49.296;14.470;2023-02-16T01:33:29;98014.89;;;4.04;43.39
47080;BME280;33067;49.296;14.470;2023-02-16T01:35:56;98015.91;;;4.11;43.06
47080;BME280;33067;49.296;14.470;2023-02-16T01:38:22;98020.45;;;3.61;43.56
47080;BME280;33067;49.296;14.470;2023-02-16T01:40:52;98016.53;;;3.44;43.40
47080;BME280;33067;49.296;14.470;2023-02-16T01:43:18;98016.46;;;3.38;43.66
47080;BME280;33067;49.296;14.470;2023-02-16T01:45:40;98015.56;;;2.98;44.21
47080;BME280;33067;49.296;14.470;2023-02-16T01:48:04;98005.38;;;3.98;42.11
47080;BME280;33067;49.296;14.470;2023-02-16T01:50:36;98000.80;;;3.64;43.29
47080;BME280;33067;49.296;14.470;2023-02-16T01:52:56;97998.68;;;3.85;42.16
47080;BME280;33067;49.296;14.470;2023-02-16T01:55:22;97996.36;;;4.05;42.42
47080;BME280;33067;49.296;14.470;2023-02-16T01:57:45;97992.18;;;3.68;42.46
47080;BME280;33067;49.296;14.470;2023-02-16T02:00:15;97989.00;;;3.62;42.58
47080;BME280;33067;49.296;14.470;2023-02-16T02:02:35;97985.45;;;3.87;42.87
47080;BME280;33067;49.296;14.470;2023-02-16T02:05:04;97983.71;;;4.14;42.32
47080;BME280;33067;49.296;14.470;2023-02-16T02:07:29;97980.21;;;4.16;42.29
47080;BME280;33067;49.296;14.470;2023-02-16T02:09:56;97975.59;;;4.19;42.20
47080;BME280;33067;49.296;14.470;2023-02-16T02:12:22;97974.02;;;4.16;42.24
47080;BME280;33067;49.296;14.470;2023-02-16T02:14:40;97974.49;;;3.88;42.00
47080;BME280;33067;49.296;14.470;2023-02-16T02:17:08;97972.96;;;3.34;42.89
47080;BME280;33067;49.296;14.470;2023-02-16T02:19:39;97975.10;;;2.20;43.70
47080;BME280;33067;49.296;14.470;2023-02-16T02:22:13;97968.27;;;3.87;42.47
47080;BME280;33067;49.296;14.470;2023-02-16T02:24:42;97970.40;;;3.60;42.74
47080;BME280;33067;49.296;14.470;2023-02-16T02:26:56;97971.96;;;3.30;43.13
47080;BME280;33067;49.296;14.470;2023-02-16T02:29:26;97976.56;;;2.74;43.23
47080;BME280;33067;49.296;14.470;2023-02-16T02:31:47;97978.46;;;3.14;43.03
47080;BME280;33067;49.296;14.470;2023-02-16T02:34:12;97977.14;;;2.64;43.72
47080;BME280;33067;49.296;14.470;2023-02-16T02:36:36;97971.32;;;2.92;44.01
47080;BME280;33067;49.296;14.470;2023-02-16T02:39:05;97970.32;;;3.24;44.11
47080;BME280;33067;49.296;14.470;2023-02-16T02:41:24;97976.16;;;3.22;43.60
47080;BME280;33067;49.296;14.470;2023-02-16T02:43:51;97970.50;;;3.29;42.79
47080;BME280;33067;49.296;14.470;2023-02-16T02:46:15;97976.28;;;3.35;42.93
47080;BME280;33067;49.296;14.470;2023-02-16T02:48:37;97976.16;;;3.02;43.42
47080;BME280;33067;49.296;14.470;2023-02-16T02:51:07;97976.69;;;3.18;43.70
47080;BME280;33067;49.296;14.470;2023-02-16T02:53:28;97964.98;;;3.40;43.51
47080;BME280;33067;49.296;14.470;2023-02-16T02:55:54;97966.51;;;3.84;42.76
47080;BME280;33067;49.296;14.470;2023-02-16T02:58:22;97966.23;;;4.31;42.22
47080;BME280;33067;49.296;14.470;2023-02-16T03:00:45;97966.00;;;4.11;42.08
47080;BME280;33067;49.296;14.470;2023-02-16T03:03:13;97963.85;;;3.59;42.19
47080;BME280;33067;49.296;14.470;2023-02-16T03:05:37;97963.83;;;3.53;42.96
47080;BME280;33067;49.296;14.470;2023-02-16T03:08:04;97960.23;;;3.84;41.98
47080;BME280;33067;49.296;14.470;2023-02-16T03:13:01;97965.69;;;3.94;42.35
47080;BME280;33067;49.296;14.470;2023-02-16T03:15:26;97967.88;;;3.92;43.11
47080;BME280;33067;49.296;14.470;2023-02-16T03:17:52;97973.43;;;3.69;43.15
47080;BME280;33067;49.296;14.470;2023-02-16T03:20:16;97975.19;;;3.31;43.94
47080;BME280;33067;49.296;14.470;2023-02-16T03:22:42;97978.51;;;3.44;44.42
47080;BME280;33067;49.296;14.470;2023-02-16T03:25:06;97976.78;;;3.85;43.79
47080;BME280;33067;49.296;14.470;2023-02-16T03:27:39;97970.58;;;3.38;43.44
47080;BME280;33067;49.296;14.470;2023-02-16T03:29:59;97971.08;;;3.46;43.78
47080;BME280;33067;49.296;14.470;2023-02-16T03:32:22;97974.09;;;3.39;43.99
47080;BME280;33067;49.296;14.470;2023-02-16T03:34:48;97978.20;;;3.27;44.42
47080;BME280;33067;49.296;14.470;2023-02-16T03:37:13;97977.83;;;2.94;44.97
47080;BME280;33067;49.296;14.470;2023-02-16T03:39:39;97975.71;;;3.31;44.27
47080;BME280;33067;49.296;14.470;2023-02-16T03:42:05;97976.63;;;3.28;44.55
47080;BME280;33067;49.296;14.470;2023-02-16T03:44:30;97973.40;;;3.29;44.19
47080;BME280;33067;49.296;14.470;2023-02-16T03:46:56;97974.81;;;3.11;44.96
47080;BME280;33067;49.296;14.470;2023-02-16T03:49:21;97973.20;;;3.12;44.74
47080;BME280;33067;49.296;14.470;2023-02-16T03:51:47;97970.50;;;3.26;44.56
47080;BME280;33067;49.296;14.470;2023-02-16T03:54:12;97972.18;;;3.61;43.76
47080;BME280;33067;49.296;14.470;2023-02-16T03:56:38;97967.29;;;3.46;44.41
47080;BME280;33067;49.296;14.470;2023-02-16T03:59:04;97964.97;;;3.29;43.92
47080;BME280;33067;49.296;14.470;2023-02-16T04:01:29;97964.72;;;3.71;43.97
47080;BME280;33067;49.296;14.470;2023-02-16T04:03:54;97962.26;;;3.12;44.22
47080;BME280;33067;49.296;14.470;2023-02-16T04:06:20;97961.91;;;3.27;44.06
47080;BME280;33067;49.296;14.470;2023-02-16T04:08:45;97962.93;;;3.32;44.40
47080;BME280;33067;49.296;14.470;2023-02-16T04:11:11;97963.44;;;3.17;44.50
47080;BME280;33067;49.296;14.470;2023-02-16T04:13:37;97962.91;;;3.31;44.73
47080;BME280;33067;49.296;14.470;2023-02-16T04:16:04;97960.54;;;3.48;44.25
47080;BME280;33067;49.296;14.470;2023-02-16T04:18:28;97962.74;;;3.58;44.16
47080;BME280;33067;49.296;14.470;2023-02-16T04:20:54;97960.15;;;3.18;44.02
47080;BME280;33067;49.296;14.470;2023-02-16T04:23:19;97958.60;;;3.36;44.49
47080;BME280;33067;49.296;14.470;2023-02-16T04:25:44;97960.71;;;3.42;44.63
47080;BME280;33067;49.296;14.470;2023-02-16T04:28:10;97959.54;;;3.59;44.26
47080;BME280;33067;49.296;14.470;2023-02-16T04:30:35;97960.64;;;3.65;44.18
47080;BME280;33067;49.296;14.470;2023-02-16T04:33:00;97955.60;;;3.79;43.74
47080;BME280;33067;49.296;14.470;2023-02-16T04:35:26;97955.17;;;3.81;43.79
47080;BME280;33067;49.296;14.470;2023-02-16T04:37:51;97955.69;;;3.46;44.16
47080;BME280;33067;49.296;14.470;2023-02-16T04:40:18;97955.88;;;3.29;44.17
47080;BME280;33067;49.296;14.470;2023-02-16T04:42:43;97953.81;;;3.56;44.23
47080;BME280;33067;49.296;14.470;2023-02-16T04:45:09;97956.80;;;3.78;43.98
47080;BME280;33067;49.296;14.470;2023-02-16T04:47:33;97957.58;;;3.20;44.08
47080;BME280;33067;49.296;14.470;2023-02-16T04:49:59;97958.63;;;3.24;44.96
47080;BME280;33067;49.296;14.470;2023-02-16T04:52:24;97963.37;;;3.25;44.86
47080;BME280;33067;49.296;14.470;2023-02-16T04:54:49;97964.16;;;3.21;45.05
47080;BME280;33067;49.296;14.470;2023-02-16T04:57:15;97963.53;;;3.26;44.96
47080;BME280;33067;49.296;14.470;2023-02-16T04:59:42;97962.39;;;3.14;45.13
47080;BME280;33067;49.296;14.470;2023-02-16T05:02:06;97962.47;;;3.42;44.64
47080;BME280;33067;49.296;14.470;2023-02-16T05:04:32;97961.85;;;3.27;44.43
47080;BME280;33067;49.296;14.470;2023-02-16T05:06:56;97961.18;;;2.91;45.04
47080;BME280;33067;49.296;14.470;2023-02-16T05:09:22;97957.63;;;3.27;44.24
47080;BME280;33067;49.296;14.470;2023-02-16T05:11:47;97962.26;;;2.90;44.16
47080;BME280;33067;49.296;14.470;2023-02-16T05:14:19;97961.58;;;2.32;45.82
47080;BME280;33067;49.296;14.470;2023-02-16T05:16:39;97964.37;;;2.79;45.70
47080;BME280;33067;49.296;14.470;2023-02-16T05:19:04;97960.81;;;2.43;45.44
47080;BME280;33067;49.296;14.470;2023-02-16T05:21:30;97963.17;;;1.90;47.09
47080;BME280;33067;49.296;14.470;2023-02-16T05:23:55;97960.72;;;2.33;47.00
47080;BME280;33067;49.296;14.470;2023-02-16T05:26:20;97965.50;;;2.64;46.33
47080;BME280;33067;49.296;14.470;2023-02-16T05:28:46;97963.30;;;2.56;46.75
47080;BME280;33067;49.296;14.470;2023-02-16T05:31:13;97964.33;;;2.73;46.12
47080;BME280;33067;49.296;14.470;2023-02-16T05:33:37;97961.00;;;2.99;45.62
47080;BME280;33067;49.296;14.470;2023-02-16T05:36:03;97960.14;;;3.14;45.20
47080;BME280;33067;49.296;14.470;2023-02-16T05:38:28;97963.82;;;2.80;45.79
47080;BME280;33067;49.296;14.470;2023-02-16T05:40:53;97967.59;;;3.01;45.29
47080;BME280;33067;49.296;14.470;2023-02-16T05:43:19;97970.18;;;3.25;44.84
47080;BME280;33067;49.296;14.470;2023-02-16T05:45:44;97969.53;;;3.46;44.50
47080;BME280;33067;49.296;14.470;2023-02-16T05:48:09;97967.41;;;3.47;44.11
47080;BME280;33067;49.296;14.470;2023-02-16T05:50:35;97980.26;;;3.18;44.76
47080;BME280;33067;49.296;14.470;2023-02-16T05:53:00;97982.07;;;3.33;44.33
47080;BME280;33067;49.296;14.470;2023-02-16T05:55:25;97986.32;;;2.88;44.67
47080;BME280;33067;49.296;14.470;2023-02-16T05:57:51;97988.14;;;3.17;44.63
47080;BME280;33067;49.296;14.470;2023-02-16T06:00:16;97986.29;;;3.01;44.03
47080;BME280;33067;49.296;14.470;2023-02-16T06:02:42;97994.55;;;2.95;43.68
47080;BME280;33067;49.296;14.470;2023-02-16T06:05:07;97998.87;;;2.63;43.79
47080;BME280;33067;49.296;14.470;2023-02-16T06:07:32;98002.95;;;2.49;44.40
47080;BME280;33067;49.296;14.470;2023-02-16T06:09:58;98003.41;;;2.01;46.24
47080;BME280;33067;49.296;14.470;2023-02-16T06:12:23;98002.91;;;2.27;45.71
47080;BME280;33067;49.296;14.470;2023-02-16T06:14:49;98004.21;;;2.38;45.76
47080;BME280;33067;49.296;14.470;2023-02-16T06:17:14;98003.48;;;2.70;45.18
47080;BME280;33067;49.296;14.470;2023-02-16T06:19:40;98001.91;;;3.00;44.55
47080;BME280;33067;49.296;14.470;2023-02-16T06:22:05;98004.42;;;2.85;45.03
47080;BME280;33067;49.296;14.470;2023-02-16T06:24:30;98002.24;;;2.75;45.27
47080;BME280;33067;49.296;14.470;2023-02-16T06:26:56;97998.54;;;3.02;45.07
47080;BME280;33067;49.296;14.470;2023-02-16T06:29:22;97998.49;;;2.97;45.35
47080;BME280;33067;49.296;14.470;2023-02-16T06:31:47;98001.50;;;3.17;44.76
47080;BME280;33067;49.296;14.470;2023-02-16T06:34:12;98000.54;;;2.68;44.74
47080;BME280;33067;49.296;14.470;2023-02-16T06:36:38;97998.97;;;2.97;45.11
47080;BME280;33067;49.296;14.470;2023-02-16T06:39:03;98000.11;;;3.07;44.44
47080;BME280;33067;49.296;14.470;2023-02-16T06:41:28;97994.76;;;3.33;44.37
47080;BME280;33067;49.296;14.470;2023-02-16T06:43:54;97995.51;;;3.51;43.92
47080;BME280;33067;49.296;14.470;2023-02-16T06:46:19;97996.04;;;3.06;44.03
47080;BME280;33067;49.296;14.470;2023-02-16T06:48:45;98001.19;;;3.34;43.71
47080;BME280;33067;49.296;14.470;2023-02-16T06:51:10;98002.52;;;3.61;42.95
47080;BME280;33067;49.296;14.470;2023-02-16T06:53:35;98004.14;;;3.20;44.00
47080;BME280;33067;49.296;14.470;2023-02-16T06:56:01;98006.74;;;3.55;43.64
47080;BME280;33067;49.296;14.470;2023-02-16T06:58:26;98010.48;;;3.30;43.56
47080;BME280;33067;49.296;14.470;2023-02-16T07:00:54;98012.13;;;3.24;43.94
47080;BME280;33067;49.296;14.470;2023-02-16T07:03:17;98011.82;;;2.97;43.79
47080;BME280;33067;49.296;14.470;2023-02-16T07:05:42;98010.19;;;3.35;43.67
47080;BME280;33067;49.296;14.470;2023-02-16T07:08:07;98010.87;;;3.23;43.60
47080;BME280;33067;49.296;14.470;2023-02-16T07:10:32;98007.75;;;3.35;43.40
47080;BME280;33067;49.296;14.470;2023-02-16T07:12:59;98009.43;;;3.34;43.20
47080;BME280;33067;49.296;14.470;2023-02-16T07:15:23;98009.04;;;3.08;43.82
47080;BME280;33067;49.296;14.470;2023-02-16T07:17:49;98012.08;;;3.08;43.89
47080;BME280;33067;49.296;14.470;2023-02-16T07:20:14;98011.20;;;3.38;43.70
47080;BME280;33067;49.296;14.470;2023-02-16T07:22:40;98009.61;;;3.07;43.83
47080;BME280;33067;49.296;14.470;2023-02-16T07:25:05;98005.91;;;2.86;43.92
47080;BME280;33067;49.296;14.470;2023-02-16T07:27:30;98002.89;;;3.25;43.51
47080;BME280;33067;49.296;14.470;2023-02-16T07:29:56;98002.99;;;3.35;43.61
47080;BME280;33067;49.296;14.470;2023-02-16T07:32:21;97996.95;;;3.28;42.96
47080;BME280;33067;49.296;14.470;2023-02-16T07:34:46;97996.53;;;2.45;43.95
47080;BME280;33067;49.296;14.470;2023-02-16T07:37:12;97992.07;;;3.36;43.21
47080;BME280;33067;49.296;14.470;2023-02-16T07:39:38;97990.67;;;2.97;42.68
47080;BME280;33067;49.296;14.470;2023-02-16T07:42:03;97989.66;;;2.77;43.69
47080;BME280;33067;49.296;14.470;2023-02-16T07:44:28;97994.68;;;2.18;45.23
47080;BME280;33067;49.296;14.470;2023-02-16T07:46:54;97998.18;;;2.55;44.39
47080;BME280;33067;49.296;14.470;2023-02-16T07:49:21;97999.15;;;2.60;44.39
47080;BME280;33067;49.296;14.470;2023-02-16T07:51:46;97997.32;;;1.85;45.61
47080;BME280;33067;49.296;14.470;2023-02-16T07:54:11;97999.91;;;2.42;45.21
47080;BME280;33067;49.296;14.470;2023-02-16T07:56:37;97999.89;;;2.17;45.16
47080;BME280;33067;49.296;14.470;2023-02-16T07:59:03;98005.53;;;2.63;45.29
47080;BME280;33067;49.296;14.470;2023-02-16T08:01:29;98002.89;;;2.58;45.27
47080;BME280;33067;49.296;14.470;2023-02-16T08:03:53;98001.94;;;3.07;44.14
47080;BME280;33067;49.296;14.470;2023-02-16T08:06:19;98001.65;;;2.41;44.64
47080;BME280;33067;49.296;14.470;2023-02-16T08:08:44;98001.37;;;2.88;44.00
47080;BME280;33067;49.296;14.470;2023-02-16T08:11:14;98003.43;;;2.57;44.72
47080;BME280;33067;49.296;14.470;2023-02-16T08:13:35;98007.21;;;2.77;44.67
47080;BME280;33067;49.296;14.470;2023-02-16T08:16:00;98005.61;;;2.84;43.99
47080;BME280;33067;49.296;14.470;2023-02-16T08:18:25;98010.14;;;2.73;44.15
47080;BME280;33067;49.296;14.470;2023-02-16T08:20:50;98005.03;;;2.32;44.62
47080;BME280;33067;49.296;14.470;2023-02-16T08:23:15;98010.54;;;2.44;44.16
47080;BME280;33067;49.296;14.470;2023-02-16T08:25:40;98013.19;;;2.29;45.32
47080;BME280;33067;49.296;14.470;2023-02-16T08:28:06;98011.47;;;2.58;45.11
47080;BME280;33067;49.296;14.470;2023-02-16T08:30:32;98009.43;;;2.48;44.85
47080;BME280;33067;49.296;14.470;2023-02-16T08:32:58;98005.99;;;2.48;45.11
47080;BME280;33067;49.296;14.470;2023-02-16T08:35:21;98001.96;;;2.43;44.81
47080;BME280;33067;49.296;14.470;2023-02-16T08:37:47;98006.85;;;2.59;44.68
47080;BME280;33067;49.296;14.470;2023-02-16T08:40:12;98007.69;;;2.41;46.00
47080;BME280;33067;49.296;14.470;2023-02-16T08:42:38;98007.81;;;2.57;45.43
47080;BME280;33067;49.296;14.470;2023-02-16T08:45:04;98007.77;;;2.68;45.44
47080;BME280;33067;49.296;14.470;2023-02-16T08:47:28;98006.65;;;2.73;44.92
47080;BME280;33067;49.296;14.470;2023-02-16T08:49:54;98009.21;;;2.77;44.38
47080;BME280;33067;49.296;14.470;2023-02-16T08:52:19;98012.73;;;2.73;44.77
47080;BME280;33067;49.296;14.470;2023-02-16T08:54:45;98014.82;;;2.46;45.54
47080;BME280;33067;49.296;14.470;2023-02-16T08:57:10;98014.17;;;2.56;45.47
47080;BME280;33067;49.296;14.470;2023-02-16T08:59:35;98015.83;;;3.11;45.07
47080;BME280;33067;49.296;14.470;2023-02-16T09:02:02;98020.10;;;2.96;45.07
47080;BME280;33067;49.296;14.470;2023-02-16T09:04:26;98022.62;;;2.93;44.58
47080;BME280;33067;49.296;14.470;2023-02-16T09:06:52;98021.95;;;3.38;44.53
47080;BME280;33067;49.296;14.470;2023-02-16T09:09:17;98022.50;;;2.87;45.33
47080;BME280;33067;49.296;14.470;2023-02-16T09:11:42;98017.83;;;3.19;45.18
47080;BME280;33067;49.296;14.470;2023-02-16T09:14:08;98016.01;;;3.26;44.76
47080;BME280;33067;49.296;14.470;2023-02-16T09:16:34;98014.40;;;3.56;44.66
47080;BME280;33067;49.296;14.470;2023-02-16T09:18:59;98012.89;;;3.32;44.41
47080;BME280;33067;49.296;14.470;2023-02-16T09:21:24;98013.56;;;3.22;45.12
47080;BME280;33067;49.296;14.470;2023-02-16T09:23:51;98015.60;;;3.11;45.16
47080;BME280;33067;49.296;14.470;2023-02-16T09:26:17;98014.16;;;4.19;43.82
47080;BME280;33067;49.296;14.470;2023-02-16T09:28:41;98010.99;;;3.78;44.52
47080;BME280;33067;49.296;14.470;2023-02-16T09:31:09;98008.65;;;4.07;43.96
47080;BME280;33067;49.296;14.470;2023-02-16T09:33:31;98005.15;;;4.16;43.08
47080;BME280;33067;49.296;14.470;2023-02-16T09:35:56;98004.33;;;4.19;43.43
47080;BME280;33067;49.296;14.470;2023-02-16T09:38:21;98007.25;;;4.39;43.00
47080;BME280;33067;49.296;14.470;2023-02-16T09:40:47;98007.36;;;4.12;43.16
47080;BME280;33067;49.296;14.470;2023-02-16T09:43:19;98004.81;;;4.16;43.38
47080;BME280;33067;49.296;14.470;2023-02-16T09:45:42;98006.02;;;4.61;43.30
47080;BME280;33067;49.296;14.470;2023-02-16T09:48:05;98008.32;;;4.60;43.43
47080;BME280;33067;49.296;14.470;2023-02-16T09:50:30;98007.36;;;4.54;43.11
47080;BME280;33067;49.296;14.470;2023-02-16T09:52:58;98000.03;;;4.98;42.79
47080;BME280;33067;49.296;14.470;2023-02-16T09:55:19;98003.40;;;4.93;42.59
47080;BME280;33067;49.296;14.470;2023-02-16T09:57:55;98005.97;;;5.06;43.36
47080;BME280;33067;49.296;14.470;2023-02-16T10:02:43;97998.17;;;4.77;42.87
47080;BME280;33067;49.296;14.470;2023-02-16T10:05:14;97998.54;;;5.15;43.26
47080;BME280;33067;49.296;14.470;2023-02-16T10:07:33;98001.75;;;5.21;43.09
47080;BME280;33067;49.296;14.470;2023-02-16T10:09:53;98007.70;;;5.09;43.28
47080;BME280;33067;49.296;14.470;2023-02-16T10:12:19;98005.43;;;5.37;42.85
47080;BME280;33067;49.296;14.470;2023-02-16T10:14:45;98005.24;;;5.35;42.94
47080;BME280;33067;49.296;14.470;2023-02-16T10:17:20;97998.72;;;5.63;42.70
47080;BME280;33067;49.296;14.470;2023-02-16T10:19:42;97993.43;;;5.49;42.55
47080;BME280;33067;49.296;14.470;2023-02-16T10:22:05;97994.58;;;5.70;42.60
47080;BME280;33067;49.296;14.470;2023-02-16T10:24:26;97992.81;;;5.51;42.66
47080;BME280;33067;49.296;14.470;2023-02-16T10:26:57;97990.63;;;5.52;43.01
47080;BME280;33067;49.296;14.470;2023-02-16T10:29:18;97988.46;;;5.59;42.31
47080;BME280;33067;49.296;14.470;2023-02-16T10:31:44;97987.82;;;5.51;43.05
47080;BME280;33067;49.296;14.470;2023-02-16T10:34:16;97987.32;;;5.53;43.05
47080;BME280;33067;49.296;14.470;2023-02-16T10:36:44;97990.18;;;5.42;42.94
47080;BME280;33067;49.296;14.470;2023-02-16T10:39:00;97991.78;;;5.37;43.00
47080;BME280;33067;49.296;14.470;2023-02-16T10:41:30;97995.37;;;4.90;44.02
47080;BME280;33067;49.296;14.470;2023-02-16T10:43:53;97984.37;;;4.70;44.47
47080;BME280;33067;49.296;14.470;2023-02-16T10:46:19;97982.11;;;4.81;44.50
47080;BME280;33067;49.296;14.470;2023-02-16T10:48:39;97979.27;;;5.07;44.19
47080;BME280;33067;49.296;14.470;2023-02-16T10:51:08;97977.70;;;5.12;44.36
47080;BME280;33067;49.296;14.470;2023-02-16T10:53:37;97970.23;;;5.43;44.15
47080;BME280;33067;49.296;14.470;2023-02-16T10:55:57;97967.61;;;5.25;44.31
47080;BME280;33067;49.296;14.470;2023-02-16T10:58:24;97962.21;;;5.31;44.30
47080;BME280;33067;49.296;14.470;2023-02-16T11:00:51;97954.87;;;5.63;43.72
47080;BME280;33067;49.296;14.470;2023-02-16T11:03:12;97952.05;;;6.03;42.73
47080;BME280;33067;49.296;14.470;2023-02-16T11:05:38;97952.33;;;5.59;43.24
47080;BME280;33067;49.296;14.470;2023-02-16T11:08:03;97952.93;;;5.56;43.66
47080;BME280;33067;49.296;14.470;2023-02-16T11:10:34;97949.51;;;5.18;44.12
47080;BME280;33067;49.296;14.470;2023-02-16T11:12:55;97942.09;;;5.58;43.69
47080;BME280;33067;49.296;14.470;2023-02-16T11:15:24;97940.99;;;5.64;43.61
47080;BME280;33067;49.296;14.470;2023-02-16T11:17:49;97939.41;;;5.76;43.75
47080;BME280;33067;49.296;14.470;2023-02-16T11:20:25;97942.56;;;5.54;44.05
47080;BME280;33067;49.296;14.470;2023-02-16T11:22:36;97936.37;;;5.68;44.13
47080;BME280;33067;49.296;14.470;2023-02-16T11:27:25;97926.85;;;5.62;43.84
47080;BME280;33067;49.296;14.470;2023-02-16T11:32:18;97921.02;;;6.24;42.81
47080;BME280;33067;49.296;14.470;2023-02-16T11:34:45;97915.49;;;5.84;43.51
47080;BME280;33067;49.296;14.470;2023-02-16T11:37:13;97909.68;;;6.10;43.22
47080;BME280;33067;49.296;14.470;2023-02-16T11:39:36;97909.94;;;6.62;42.66
47080;BME280;33067;49.296;14.470;2023-02-16T11:42:02;97903.32;;;6.33;42.75
47080;BME280;33067;49.296;14.470;2023-02-16T11:44:26;97907.49;;;7.16;42.38
47080;BME280;33067;49.296;14.470;2023-02-16T11:46:48;97905.54;;;6.71;42.33
47080;BME280;33067;49.296;14.470;2023-02-16T11:49:20;97910.16;;;6.76;42.46
47080;BME280;33067;49.296;14.470;2023-02-16T11:51:40;97905.79;;;6.79;42.11
47080;BME280;33067;49.296;14.470;2023-02-16T11:54:15;97904.30;;;6.82;42.44
47080;BME280;33067;49.296;14.470;2023-02-16T11:56:33;97897.67;;;6.87;42.39
47080;BME280;33067;49.296;14.470;2023-02-16T11:59:06;97890.11;;;7.48;41.85
47080;BME280;33067;49.296;14.470;2023-02-16T12:01:26;97891.66;;;7.46;41.71
47080;BME280;33067;49.296;14.470;2023-02-16T12:04:01;97891.73;;;6.78;42.70
47080;BME280;33067;49.296;14.470;2023-02-16T12:06:26;97892.82;;;7.50;41.76
47080;BME280;33067;49.296;14.470;2023-02-16T12:08:53;97892.81;;;7.32;42.02
47080;BME280;33067;49.296;14.470;2023-02-16T12:11:13;97890.21;;;6.58;42.69
47080;BME280;33067;49.296;14.470;2023-02-16T12:13:36;97890.53;;;6.91;42.90
47080;BME280;33067;49.296;14.470;2023-02-16T12:16:00;97890.18;;;7.17;42.51
47080;BME280;33067;49.296;14.470;2023-02-16T12:18:29;97891.50;;;7.05;42.85
47080;BME280;33067;49.296;14.470;2023-02-16T12:20:51;97877.78;;;7.60;42.21
47080;BME280;33067;49.296;14.470;2023-02-16T12:23:27;97876.93;;;7.84;41.52
47080;BME280;33067;49.296;14.470;2023-02-16T12:25:40;97874.34;;;7.84;41.41
47080;BME280;33067;49.296;14.470;2023-02-16T12:28:09;97869.98;;;8.22;40.98
47080;BME280;33067;49.296;14.470;2023-02-16T12:30:39;97863.64;;;8.47;40.45
47080;BME280;33067;49.296;14.470;2023-02-16T12:33:06;97860.30;;;8.51;40.25
47080;BME280;33067;49.296;14.470;2023-02-16T12:35:32;97855.28;;;8.57;40.42
47080;BME280;33067;49.296;14.470;2023-02-16T12:37:50;97852.35;;;9.13;39.76
47080;BME280;33067;49.296;14.470;2023-02-16T12:40:17;97847.39;;;8.85;39.98
47080;BME280;33067;49.296;14.470;2023-02-16T12:42:47;97847.21;;;8.33;40.16
47080;BME280;33067;49.296;14.470;2023-02-16T12:45:07;97846.29;;;8.98;39.81
47080;BME280;33067;49.296;14.470;2023-02-16T12:47:31;97845.17;;;8.91;39.47
47080;BME280;33067;49.296;14.470;2023-02-16T12:49:53;97840.13;;;9.00;39.41
47080;BME280;33067;49.296;14.470;2023-02-16T12:52:25;97837.75;;;9.02;39.35
47080;BME280;33067;49.296;14.470;2023-02-16T12:54:47;97835.31;;;9.13;39.26
47080;BME280;33067;49.296;14.470;2023-02-16T12:57:13;97830.32;;;9.51;38.77
47080;BME280;33067;49.296;14.470;2023-02-16T12:59:38;97826.11;;;9.46;38.87